createdAt,value
2023-04-18T00:01:56.954Z,22.20
2023-04-18T00:05:39.402Z,24.30
2023-04-18T00:09:23.551Z,23.13
2023-04-18T00:13:05.978Z,24.88
2023-04-18T00:16:48.038Z,28.58
2023-04-18T00:20:30.551Z,26.33
2023-04-18T00:24:12.768Z,25.25
2023-04-18T00:27:57.535Z,24.53
2023-04-18T00:31:42.157Z,21.23
2023-04-18T00:35:29.701Z,21.73
2023-04-18T00:39:11.830Z,24.63
2023-04-18T00:42:53.908Z,20.10
2023-04-18T00:46:35.994Z,22.70
2023-04-18T00:50:21.812Z,24.80
2023-04-18T00:54:06.281Z,24.83
2023-04-18T00:57:48.360Z,22.55
2023-04-18T01:01:32.870Z,24.70
2023-04-18T01:05:14.928Z,23.10
2023-04-18T01:08:57.075Z,23.60
2023-04-18T01:12:43.138Z,27.45
2023-04-18T01:16:25.264Z,25.97
2023-04-18T01:20:10.871Z,22.70
2023-04-18T01:24:14.441Z,25.83
2023-04-18T01:27:58.907Z,20.60
2023-04-18T01:31:41.800Z,20.63
2023-04-18T01:35:24.160Z,24.45
2023-04-18T01:39:06.765Z,20.95
2023-04-18T01:42:48.876Z,21.80
2023-04-18T01:46:33.997Z,22.30
2023-04-18T01:50:16.155Z,19.20
2023-04-18T01:53:58.251Z,15.53
2023-04-18T01:57:40.480Z,17.50
2023-04-18T02:01:22.691Z,19.15
2023-04-18T02:05:07.759Z,16.57
2023-04-18T02:08:51.110Z,18.05
2023-04-18T02:12:34.420Z,19.83
2023-04-18T02:16:16.568Z,14.45
2023-04-18T02:19:59.464Z,15.40
2023-04-18T02:23:42.744Z,14.93
2023-04-18T02:27:24.821Z,15.10
2023-04-18T02:31:07.642Z,16.03
2023-04-18T02:34:50.858Z,15.07
2023-04-18T02:38:35.626Z,16.80
2023-04-18T02:42:19.883Z,17.90
2023-04-18T02:46:01.984Z,18.13
2023-04-18T02:49:44.085Z,22.38
2023-04-18T02:53:26.205Z,23.88
2023-04-18T02:57:08.457Z,27.77
2023-04-18T03:00:54.399Z,25.92
2023-04-18T03:04:36.686Z,24.55
2023-04-18T03:08:18.732Z,29.07
2023-04-18T03:12:02.497Z,30.55
2023-04-18T03:15:44.857Z,31.60
2023-04-18T03:19:27.009Z,28.83
2023-04-18T03:23:09.104Z,30.65
2023-04-18T03:26:52.944Z,25.85
2023-04-18T03:30:35.074Z,27.83
2023-04-18T03:34:17.360Z,30.63
2023-04-18T03:38:04.291Z,26.67
2023-04-18T03:41:46.431Z,29.88
2023-04-18T03:45:33.917Z,29.90
2023-04-18T03:49:20.763Z,28.63
2023-04-18T03:53:05.119Z,27.10
2023-04-18T03:56:47.144Z,25.90
2023-04-18T04:00:29.522Z,33.17
2023-04-18T04:04:18.389Z,29.90
2023-04-18T04:08:02.626Z,31.92
2023-04-18T04:11:46.313Z,25.87
2023-04-18T04:15:28.510Z,30.70
2023-04-18T04:19:10.755Z,33.47
2023-04-18T04:22:52.823Z,28.17
2023-04-18T04:26:37.594Z,30.02
2023-04-18T04:30:19.923Z,28.15
2023-04-18T04:34:05.378Z,30.23
2023-04-18T04:37:47.485Z,26.00
2023-04-18T04:41:31.670Z,25.52
2023-04-18T04:45:13.901Z,27.05
2023-04-18T04:48:56.176Z,22.10
2023-04-18T04:52:40.249Z,27.50
2023-04-18T04:56:24.965Z,25.10
2023-04-18T05:00:08.727Z,26.97
2023-04-18T05:03:52.789Z,28.30
2023-04-18T05:07:35.009Z,28.88
2023-04-18T05:11:17.819Z,31.27
2023-04-18T05:14:59.938Z,26.58
2023-04-18T05:18:42.342Z,29.80
2023-04-18T05:22:24.358Z,26.60
2023-04-18T05:26:06.674Z,26.20
2023-04-18T05:29:51.831Z,30.10
2023-04-18T05:33:34.057Z,32.45
2023-04-18T05:37:18.718Z,27.73
2023-04-18T05:41:01.430Z,33.15
2023-04-18T05:44:43.444Z,31.60
2023-04-18T05:48:28.414Z,31.13
2023-04-18T05:52:11.499Z,33.05
2023-04-18T05:55:53.598Z,31.33
2023-04-18T05:59:35.658Z,32.25
2023-04-18T06:03:17.927Z,30.67
2023-04-18T06:07:04.334Z,31.60
2023-04-18T06:10:46.491Z,28.95
2023-04-18T06:14:29.096Z,29.03
2023-04-18T06:18:11.209Z,25.58
2023-04-18T06:21:53.717Z,24.33
2023-04-18T06:25:35.824Z,34.70
2023-04-18T06:33:23.527Z,31.23
2023-04-18T06:41:23.558Z,31.40
2023-04-18T06:49:09.190Z,27.52
2023-04-18T06:53:20.630Z,29.53
2023-04-18T06:57:03.892Z,26.65
2023-04-18T07:01:01.808Z,23.60
2023-04-18T07:04:44.230Z,26.55
2023-04-18T07:08:27.293Z,24.85
2023-04-18T07:12:27.355Z,22.20
2023-04-18T07:16:10.207Z,25.95
2023-04-18T07:24:12.429Z,23.40
2023-04-18T07:32:39.472Z,21.33
2023-04-18T07:36:21.868Z,20.83
2023-04-18T07:40:05.247Z,23.58
2023-04-18T07:43:58.573Z,21.90
2023-04-18T07:47:40.901Z,16.90
2023-04-18T07:55:24.769Z,23.92
2023-04-18T07:59:06.920Z,21.87
2023-04-18T08:03:38.549Z,20.15
2023-04-18T08:07:44.960Z,21.45
2023-04-18T08:11:27.948Z,21.70
2023-04-18T08:15:29.326Z,21.23
2023-04-18T08:19:12.073Z,24.17
2023-04-18T08:23:05.087Z,20.27
2023-04-18T08:26:57.873Z,19.65
2023-04-18T08:30:44.265Z,22.48
2023-04-18T08:34:43.985Z,20.50
2023-04-18T08:38:26.419Z,23.00
2023-04-18T08:42:36.750Z,21.90
2023-04-18T08:46:19.266Z,24.00
2023-04-18T08:50:32.510Z,21.50
2023-04-18T08:58:35.122Z,21.17
2023-04-18T09:02:18.183Z,19.88
2023-04-18T09:06:08.750Z,21.23
2023-04-18T09:09:58.062Z,19.85
2023-04-18T09:14:14.866Z,22.80
2023-04-18T09:18:03.459Z,18.47
2023-04-18T09:22:06.308Z,22.83
2023-04-18T09:25:59.536Z,21.52
2023-04-18T09:30:01.072Z,24.23
2023-04-18T09:42:22.931Z,20.95
2023-04-18T09:46:07.196Z,20.02
2023-04-18T09:50:12.616Z,22.15
2023-04-18T09:53:54.889Z,23.08
2023-04-18T09:58:05.747Z,19.00
2023-04-18T10:01:49.934Z,18.50
2023-04-18T10:05:59.772Z,19.05
2023-04-18T10:09:44.774Z,20.97
2023-04-18T10:13:53.762Z,24.48
2023-04-18T10:22:02.783Z,17.13
2023-04-18T10:26:10.153Z,19.10
2023-04-18T10:29:56.229Z,16.90
2023-04-18T10:34:05.397Z,21.23
2023-04-18T10:37:52.175Z,14.80
2023-04-18T10:41:50.733Z,14.35
2023-04-18T10:45:36.591Z,17.95
2023-04-18T10:53:22.807Z,16.88
2023-04-18T10:57:06.029Z,20.52
2023-04-18T11:05:05.655Z,18.40
2023-04-18T11:08:51.793Z,18.33
2023-04-18T11:12:43.145Z,19.07
2023-04-18T11:20:36.144Z,17.63
2023-04-18T11:33:17.491Z,16.47
2023-04-18T11:37:30.177Z,19.13
2023-04-18T11:45:39.295Z,16.92
2023-04-18T11:49:57.181Z,18.77
2023-04-18T12:02:17.019Z,21.77
2023-04-18T12:10:13.386Z,15.48
2023-04-18T12:18:15.379Z,16.77
2023-04-18T12:27:06.899Z,16.92
2023-04-18T12:36:07.582Z,14.80
2023-04-18T12:49:35.570Z,16.05
2023-04-18T12:57:40.151Z,16.17
2023-04-18T13:01:54.387Z,14.68
2023-04-18T13:05:37.322Z,15.88
2023-04-18T13:13:23.234Z,13.52
2023-04-18T13:17:41.206Z,13.93
2023-04-18T13:21:25.344Z,11.90
2023-04-18T13:29:11.090Z,12.95
2023-04-18T13:42:47.049Z,13.15
2023-04-18T13:50:42.845Z,14.73
2023-04-18T13:58:29.945Z,11.32
2023-04-18T14:02:44.263Z,15.60
2023-04-18T14:10:53.229Z,11.90
2023-04-18T14:18:52.420Z,15.80
2023-04-18T14:23:13.222Z,14.63
2023-04-18T14:32:23.546Z,10.38
2023-04-18T15:00:26.032Z,7.75
2023-04-18T15:15:00.982Z,7.43
2023-04-18T15:19:42.643Z,7.03
2023-04-18T15:24:01.746Z,10.32
2023-04-18T15:28:34.647Z,9.02
2023-04-18T15:37:26.804Z,10.73
2023-04-18T15:50:07.525Z,8.83
2023-04-18T15:54:29.909Z,10.32
2023-04-18T16:08:07.334Z,10.48
2023-04-18T16:26:59.407Z,9.57
2023-04-18T16:39:25.464Z,11.40
2023-04-18T16:51:58.622Z,12.98
2023-04-18T16:56:15.167Z,14.03
2023-04-18T17:13:28.087Z,11.88
2023-04-18T17:26:57.711Z,11.77
2023-04-18T17:44:43.513Z,9.15
2023-04-18T17:52:40.829Z,11.00
2023-04-18T18:01:44.062Z,9.30
2023-04-18T18:10:36.992Z,8.83
2023-04-18T18:18:33.126Z,9.27
2023-04-18T18:26:40.077Z,10.07
2023-04-18T18:31:08.416Z,11.00
2023-04-18T18:35:20.567Z,7.75
2023-04-18T18:39:02.622Z,11.82
2023-04-18T18:43:14.239Z,7.75
2023-04-18T18:51:04.467Z,7.97
2023-04-18T18:54:46.923Z,8.35
2023-04-18T18:58:35.984Z,11.93
2023-04-18T19:02:25.577Z,7.53
2023-04-18T19:10:14.932Z,8.57
2023-04-18T19:13:57.153Z,9.65
2023-04-18T19:17:45.641Z,8.77
2023-04-18T19:21:27.834Z,9.82
2023-04-18T19:25:10.163Z,9.85
2023-04-18T19:28:52.952Z,12.03
2023-04-18T19:32:37.858Z,8.75
2023-04-18T19:36:19.920Z,9.35
2023-04-18T19:40:02.922Z,11.43
2023-04-18T19:43:45.104Z,9.80
2023-04-18T19:47:28.038Z,8.25
2023-04-18T19:51:12.547Z,12.32
2023-04-18T19:54:54.860Z,11.55
2023-04-18T19:58:49.044Z,11.88
2023-04-18T20:02:31.083Z,10.07
2023-04-18T20:06:13.374Z,11.33
2023-04-18T20:09:55.374Z,13.43
2023-04-18T20:13:40.107Z,12.98
2023-04-18T20:17:22.074Z,10.80
2023-04-18T20:21:06.568Z,14.07
2023-04-18T20:24:49.246Z,10.07
2023-04-18T20:28:32.008Z,12.00
2023-04-18T20:32:13.912Z,17.42
2023-04-18T20:35:58.943Z,13.43
2023-04-18T20:39:42.172Z,12.55
2023-04-18T20:43:24.886Z,13.90
2023-04-18T20:47:06.812Z,14.00
2023-04-18T20:50:52.002Z,12.98
2023-04-18T20:54:34.002Z,13.57
2023-04-18T20:58:16.416Z,14.00
2023-04-18T21:01:58.535Z,14.07
2023-04-18T21:05:40.905Z,16.58
2023-04-18T21:09:23.208Z,10.77
2023-04-18T21:13:05.329Z,12.32
2023-04-18T21:16:47.324Z,12.32
2023-04-18T21:20:29.333Z,14.23
2023-04-18T21:24:11.344Z,11.05
2023-04-18T21:27:53.338Z,11.80
2023-04-18T21:31:35.679Z,10.63
2023-04-18T21:35:20.159Z,11.73
2023-04-18T21:39:04.099Z,10.55
2023-04-18T21:42:47.685Z,11.83
2023-04-18T21:46:30.626Z,10.75
2023-04-18T21:50:12.770Z,10.43
2023-04-18T21:53:54.755Z,10.25
2023-04-18T21:57:36.742Z,9.43
2023-04-18T22:01:18.872Z,11.25
2023-04-18T22:05:02.186Z,12.00
2023-04-18T22:08:44.194Z,12.37
2023-04-18T23:00:10.296Z,14.02
2023-04-18T23:03:55.490Z,18.67
2023-04-18T23:07:37.854Z,15.35
2023-04-18T23:11:19.790Z,13.93
2023-04-18T23:15:01.752Z,14.95
2023-04-18T23:18:43.680Z,15.23
2023-04-18T23:22:25.787Z,13.32
2023-04-18T23:26:16.888Z,16.90
2023-04-18T23:29:58.990Z,14.40
2023-04-18T23:33:40.999Z,14.88
2023-04-18T23:37:22.936Z,16.30
2023-04-18T23:41:04.944Z,12.57
2023-04-18T23:44:47.146Z,14.77
2023-04-18T23:48:29.142Z,15.73
2023-04-18T23:52:11.202Z,15.18
2023-04-18T23:55:53.789Z,12.37
2023-04-18T23:59:38.101Z,13.90
